チューリッヒ の空港の天気 - METARとTAF

チューリヒ国際空港 ( LSZH / ZRH ) - スイス チューリッヒ
飛行場実況気象(Metar)
観測時間05/28 13:50 CEST (05/28 11:50 UTC)
風向・風速東北東 2m/s
視程10km以上
天気現象
少しの雲 雲底高度 1830m
全天の4割程度の雲 雲底高度 7620m
気温29℃
湿度37%
気圧1020hPa
METARLSZH 281150Z 06004KT 340V150 9999 FEW060 SCT250 29/13 Q1020 NOSIG
過去の天気等 Google飛行場航空写真 Wunderground天気予報

過去48時間のMETAR

飛行場予報(TAF)
発表時間: 5/28 13:25 CEST (5/28 11:25 UTC)
予報対象時間: 28日14時 CEST ~ 29日20時 CEST
風向・風速不定 2m/s
視程10km以上
少しの雲 雲底高度 1,520m
28日14時 CEST から 確率 40% で
少しの塔状積雲 雲底高度 1,520m
28日20時 CEST ~ 28日23時 CEST に徐々に
視程10km以上
なし
29日13時 CEST ~ 29日16時 CEST に徐々に
視程10km以上
少しの雲 雲底高度 1,520m
29日15時 CEST から 確率 40% で
少しの塔状積雲 雲底高度 1,520m
TAF LSZH 281125Z 2812/2918 VRB03KT 9999 FEW050 TX31/2815Z TN13/2904Z TX31/2915Z
PROB40 2812/2818 FEW050TCU
BECMG 2818/2821 CAVOK
BECMG 2911/2914 9999 FEW050
PROB40 2913/2918 FEW050TCU